Time;durP1;ratioP1;P1;durP2;ratioP2;P2;SDS_P1;SDS_P2;PMS_P1;PMS_P2;Temp;Humidity;BMP_temperature;BMP_pressure;BME280_temperature;BME280_humidity;BME280_pressure;Samples;Min_cycle;Max_cycle;Signal;HPM_P1;HPM_P2
2021/12/12 00:01:57;;;;;;;73.40;42.58;;;16.90;67.60;;;;;;5034235;28;20037;-21
2021/12/12 00:04:31;;;;;;;70.07;39.80;;;16.90;67.30;;;;;;5052915;28;20048;-26
2021/12/12 00:06:57;;;;;;;70.30;41.00;;;16.90;67.40;;;;;;5034311;28;20042;-20
2021/12/12 00:09:43;;;;;;;67.45;39.88;;;16.90;67.40;;;;;;5034474;28;20049;-21
2021/12/12 00:12:18;;;;;;;67.47;39.88;;;16.90;68.20;;;;;;5032934;28;20102;-27
2021/12/12 00:14:44;;;;;;;62.60;36.67;;;16.80;67.40;;;;;;5034723;28;20048;-28
2021/12/12 00:17:10;;;;;;;63.67;37.47;;;16.80;67.40;;;;;;5036588;28;20053;-22
2021/12/12 00:19:35;;;;;;;65.63;38.05;;;16.90;67.40;;;;;;5040400;28;20414;-27
2021/12/12 00:22:04;;;;;;;62.17;37.30;;;16.90;67.30;;;;;;5034416;28;20045;-32
2021/12/12 00:24:30;;;;;;;60.40;36.00;;;16.90;67.30;;;;;;5035022;28;20112;-24
2021/12/12 00:26:56;;;;;;;62.00;35.80;;;16.90;67.30;;;;;;5034041;28;20499;-24
2021/12/12 00:29:22;;;;;;;57.53;33.78;;;16.80;67.20;;;;;;5034708;28;20085;-29
2021/12/12 00:31:50;;;;;;;56.53;33.42;;;16.90;67.90;;;;;;5034648;28;20041;-25
2021/12/12 00:34:16;;;;;;;61.88;36.38;;;16.90;67.20;;;;;;5034238;28;20108;-26
2021/12/12 00:36:42;;;;;;;56.35;34.10;;;16.90;67.30;;;;;;5037698;28;20038;-26
2021/12/12 00:39:12;;;;;;;54.70;33.78;;;16.90;67.20;;;;;;5037968;28;20045;-21
2021/12/12 00:41:56;;;;;;;52.50;31.70;;;16.80;67.20;;;;;;5045076;28;20128;-24
2021/12/12 00:44:21;;;;;;;54.78;32.88;;;16.80;67.10;;;;;;5038029;28;20509;-25
2021/12/12 00:46:47;;;;;;;51.13;31.58;;;16.90;67.10;;;;;;5038368;28;20087;-21
2021/12/12 00:49:13;;;;;;;47.17;30.48;;;16.80;67.10;;;;;;5037549;28;20057;-27
2021/12/12 00:51:40;;;;;;;51.17;31.92;;;16.80;67.10;;;;;;5046282;28;20037;-24
2021/12/12 00:54:06;;;;;;;48.30;29.02;;;16.90;67.00;;;;;;5057649;28;20041;-24
2021/12/12 00:56:32;;;;;;;46.58;29.23;;;16.90;67.00;;;;;;5055702;28;20044;-21
2021/12/12 00:58:58;;;;;;;46.80;29.33;;;16.80;67.00;;;;;;5037613;28;20141;-25
2021/12/12 01:01:29;;;;;;;45.25;30.00;;;16.80;67.00;;;;;;5038138;28;20553;-23
2021/12/12 01:04:03;;;;;;;45.15;28.67;;;16.90;67.00;;;;;;5037080;28;20045;-29
2021/12/12 01:06:29;;;;;;;44.65;28.48;;;16.80;67.00;;;;;;5038273;28;20140;-22
2021/12/12 01:08:56;;;;;;;45.00;27.88;;;16.90;67.00;;;;;;5037631;28;20490;-27
2021/12/12 01:11:34;;;;;;;41.40;26.45;;;16.90;66.90;;;;;;5038112;28;20040;-22
2021/12/12 01:13:59;;;;;;;45.17;26.55;;;16.90;66.90;;;;;;5036988;28;20071;-25
2021/12/12 01:16:31;;;;;;;39.42;25.00;;;16.80;66.90;;;;;;5037726;28;20076;-23
2021/12/12 01:18:59;;;;;;;40.75;26.13;;;16.90;66.90;;;;;;5045524;28;20049;-24
2021/12/12 01:21:35;;;;;;;39.40;25.42;;;16.90;66.90;;;;;;5036659;28;20075;-21
2021/12/12 01:24:09;;;;;;;38.08;24.13;;;16.90;66.90;;;;;;5037264;28;20049;-24
2021/12/12 01:26:35;;;;;;;39.33;24.65;;;16.90;66.80;;;;;;5036735;28;20038;-23
2021/12/12 01:29:01;;;;;;;39.75;23.52;;;16.80;66.80;;;;;;5035480;28;20057;-23
2021/12/12 01:31:31;;;;;;;34.22;22.98;;;16.80;66.80;;;;;;5037323;28;20098;-24
2021/12/12 01:34:08;;;;;;;37.65;24.20;;;16.80;66.70;;;;;;5036779;28;20154;-25
2021/12/12 01:37:10;;;;;;;36.15;23.88;;;16.80;66.70;;;;;;5037742;28;20041;-24
2021/12/12 01:39:28;;;;;;;36.05;23.23;;;16.90;66.90;;;;;;5034911;28;20046;-24
2021/12/12 01:42:00;;;;;;;36.33;22.52;;;16.90;66.80;;;;;;5036645;28;20048;-30
2021/12/12 01:44:41;;;;;;;32.15;21.50;;;16.80;66.70;;;;;;5037037;28;20494;-26
2021/12/12 01:47:10;;;;;;;33.53;22.02;;;16.90;66.80;;;;;;5035948;28;20451;-24
2021/12/12 01:49:38;;;;;;;34.20;22.27;;;16.80;66.60;;;;;;5052492;28;20109;-21
2021/12/12 01:52:05;;;;;;;31.58;20.67;;;16.80;66.60;;;;;;5036638;28;20096;-24
2021/12/12 01:54:42;;;;;;;30.73;21.05;;;16.90;66.70;;;;;;5037072;28;20073;-32
2021/12/12 01:57:08;;;;;;;32.75;21.20;;;16.90;66.60;;;;;;5016692;28;20046;-30
2021/12/12 01:59:37;;;;;;;30.88;20.15;;;16.90;66.50;;;;;;4999906;28;20495;-33
2021/12/12 02:02:08;;;;;;;34.35;21.27;;;16.90;66.60;;;;;;4999340;28;20111;-26
2021/12/12 02:04:38;;;;;;;28.38;19.40;;;16.80;66.60;;;;;;5017247;28;20060;-30
2021/12/12 02:07:04;;;;;;;29.55;19.63;;;16.80;66.70;;;;;;5016561;28;20128;-25
2021/12/12 02:09:29;;;;;;;27.95;18.70;;;16.90;66.60;;;;;;5002691;28;20076;-29
2021/12/12 02:11:56;;;;;;;27.50;18.48;;;16.90;66.70;;;;;;5035813;28;20042;-22
2021/12/12 02:14:22;;;;;;;25.85;17.50;;;16.80;66.60;;;;;;5044481;28;20045;-25
2021/12/12 02:16:50;;;;;;;26.85;17.10;;;16.90;66.60;;;;;;5055817;28;20049;-26
2021/12/12 02:19:16;;;;;;;28.45;18.25;;;16.80;66.60;;;;;;5034974;28;20400;-23
2021/12/12 02:21:59;;;;;;;24.02;16.50;;;16.80;66.70;;;;;;5022549;28;20045;-24
2021/12/12 02:37:42;;;;;;;21.42;14.98;;;16.80;66.70;;;;;;5055586;28;20041;-28
2021/12/12 02:40:14;;;;;;;21.20;15.07;;;16.80;66.80;;;;;;5054348;28;20048;-28
2021/12/12 02:42:40;;;;;;;22.98;15.35;;;16.80;66.80;;;;;;5056358;28;20398;-28
2021/12/12 02:45:08;;;;;;;21.50;15.52;;;16.80;66.80;;;;;;5055696;28;20051;-25
2021/12/12 02:47:34;;;;;;;22.85;16.10;;;16.80;66.80;;;;;;5055616;28;20567;-27
2021/12/12 02:50:10;;;;;;;19.50;14.50;;;16.80;66.80;;;;;;5049870;28;20529;-20
2021/12/12 02:52:39;;;;;;;21.77;15.57;;;16.80;66.80;;;;;;5054137;28;20127;-21
2021/12/12 02:55:18;;;;;;;21.65;15.43;;;16.80;66.80;;;;;;5038694;28;20113;-22
2021/12/12 02:57:44;;;;;;;18.98;13.73;;;16.80;66.80;;;;;;5036122;28;20041;-22
2021/12/12 03:00:12;;;;;;;19.70;13.95;;;16.80;66.80;;;;;;5017771;28;20052;-20
2021/12/12 03:02:45;;;;;;;17.02;13.43;;;16.80;66.80;;;;;;5035137;28;20425;-20
2021/12/12 03:05:11;;;;;;;18.20;13.38;;;16.80;66.70;;;;;;5035149;28;20441;-20
2021/12/12 03:07:37;;;;;;;17.55;12.43;;;16.80;66.70;;;;;;5036201;28;20041;-22
2021/12/12 03:10:04;;;;;;;17.02;12.90;;;16.80;66.70;;;;;;5035037;28;20056;-23
2021/12/12 03:12:33;;;;;;;17.15;12.65;;;16.80;66.70;;;;;;5035751;28;20395;-26
2021/12/12 03:15:14;;;;;;;17.55;12.80;;;16.80;66.80;;;;;;5043431;28;20045;-20
2021/12/12 03:17:41;;;;;;;14.77;11.77;;;16.70;66.80;;;;;;5040459;28;20037;-20
2021/12/12 03:20:23;;;;;;;15.95;12.27;;;16.80;66.80;;;;;;5037451;28;20124;-21
2021/12/12 03:22:56;;;;;;;15.50;11.60;;;16.80;66.70;;;;;;5035920;28;20040;-22
2021/12/12 03:25:22;;;;;;;14.90;11.00;;;16.80;66.80;;;;;;5035125;28;20045;-20
2021/12/12 03:27:48;;;;;;;15.88;12.07;;;16.80;66.90;;;;;;5035306;28;20087;-25
2021/12/12 03:30:13;;;;;;;16.70;11.95;;;16.80;66.80;;;;;;5034835;28;20052;-24
2021/12/12 03:32:39;;;;;;;14.63;11.02;;;16.80;66.90;;;;;;5035151;28;20045;-24
2021/12/12 03:35:06;;;;;;;14.82;10.57;;;16.80;66.90;;;;;;5034726;28;20652;-21
2021/12/12 03:37:32;;;;;;;15.18;11.82;;;16.80;66.90;;;;;;5035439;28;20413;-22
2021/12/12 03:40:01;;;;;;;13.70;10.90;;;16.80;66.80;;;;;;5034845;28;20052;-23
2021/12/12 03:42:28;;;;;;;13.95;10.82;;;16.80;66.70;;;;;;5043250;28;20044;-20
2021/12/12 03:44:53;;;;;;;13.20;10.07;;;16.80;66.90;;;;;;5039708;28;20175;-20
2021/12/12 03:47:26;;;;;;;12.35;9.75;;;16.80;66.90;;;;;;5042598;28;20104;-24
2021/12/12 03:49:52;;;;;;;12.85;10.55;;;16.80;66.90;;;;;;5043345;28;20056;-24
2021/12/12 03:52:18;;;;;;;11.57;9.70;;;16.80;66.90;;;;;;5047750;28;20041;-25
2021/12/12 03:54:45;;;;;;;12.98;10.00;;;16.80;66.80;;;;;;5051492;28;20521;-20
2021/12/12 03:57:11;;;;;;;11.18;9.20;;;16.80;66.80;;;;;;5034455;28;20041;-22
2021/12/12 03:59:37;;;;;;;10.65;9.25;;;16.80;66.70;;;;;;5035196;28;20077;-21
2021/12/12 04:02:02;;;;;;;13.30;10.00;;;16.80;66.80;;;;;;5033994;28;20033;-27
2021/12/12 04:04:41;;;;;;;12.18;9.73;;;16.80;66.80;;;;;;5034947;28;20073;-21
2021/12/12 04:07:19;;;;;;;11.85;9.63;;;16.80;66.80;;;;;;5034351;28;20053;-27
2021/12/12 04:09:44;;;;;;;11.30;8.73;;;16.70;66.70;;;;;;5029934;28;20045;-22
2021/12/12 04:12:11;;;;;;;12.10;9.57;;;16.70;66.80;;;;;;5024534;28;20046;-21
2021/12/12 04:14:37;;;;;;;9.57;7.88;;;16.80;66.90;;;;;;5041626;28;20045;-21
2021/12/12 04:17:05;;;;;;;10.05;8.35;;;16.80;66.90;;;;;;5040706;28;20048;-21
2021/12/12 04:19:31;;;;;;;10.18;8.05;;;16.80;66.80;;;;;;5044731;28;20048;-26
2021/12/12 04:21:57;;;;;;;10.63;8.48;;;16.80;66.70;;;;;;5045900;28;20406;-23
2021/12/12 04:24:27;;;;;;;10.40;8.32;;;16.80;66.70;;;;;;5040965;28;20068;-24
2021/12/12 04:26:53;;;;;;;8.98;8.07;;;16.80;66.70;;;;;;5041715;28;20055;-26
2021/12/12 04:29:25;;;;;;;9.25;7.80;;;16.80;66.70;;;;;;5040992;28;20045;-22
2021/12/12 04:31:57;;;;;;;8.43;7.63;;;16.80;66.70;;;;;;5040916;28;20593;-24
2021/12/12 04:34:27;;;;;;;7.95;7.15;;;16.80;66.60;;;;;;5040731;28;20048;-22
2021/12/12 04:36:53;;;;;;;8.48;7.60;;;16.80;66.60;;;;;;5041590;28;20037;-24
2021/12/12 04:39:25;;;;;;;8.43;7.22;;;16.80;66.80;;;;;;5040838;28;20042;-24
2021/12/12 04:41:52;;;;;;;8.85;7.53;;;16.70;66.80;;;;;;5041294;28;20109;-24
2021/12/12 04:44:22;;;;;;;7.93;7.13;;;16.80;66.90;;;;;;5040822;28;20049;-23
2021/12/12 04:49:56;;;;;;;7.90;6.93;;;16.70;66.70;;;;;;5060539;28;20064;-21
2021/12/12 04:52:46;;;;;;;7.78;6.68;;;16.80;66.90;;;;;;5060454;28;20040;-23
2021/12/12 04:55:20;;;;;;;7.30;6.60;;;16.80;66.70;;;;;;5039028;28;20041;-23
2021/12/12 04:57:51;;;;;;;7.70;6.50;;;16.80;66.70;;;;;;5041688;28;20137;-28
2021/12/12 05:00:20;;;;;;;7.88;6.93;;;16.80;66.80;;;;;;5055214;28;20473;-26
2021/12/12 05:03:19;;;;;;;7.63;6.60;;;16.80;66.70;;;;;;5041249;28;20133;-24
2021/12/12 05:05:44;;;;;;;7.18;6.47;;;16.80;66.70;;;;;;5046436;28;20064;-25
2021/12/12 05:08:41;;;;;;;6.88;6.18;;;16.80;66.70;;;;;;5040641;28;20037;-23
2021/12/12 05:11:25;;;;;;;7.72;6.93;;;16.70;66.70;;;;;;5027087;28;20148;-23
2021/12/12 05:13:55;;;;;;;6.15;5.65;;;16.80;66.70;;;;;;5056579;28;20042;-27
2021/12/12 05:16:24;;;;;;;6.32;5.70;;;16.80;66.60;;;;;;5040125;28;20033;-20
2021/12/12 05:18:51;;;;;;;6.40;5.82;;;16.70;66.60;;;;;;5031822;28;20096;-24
2021/12/12 05:21:25;;;;;;;5.60;5.10;;;16.80;66.50;;;;;;5039156;28;20056;-22
2021/12/12 05:23:52;;;;;;;6.25;5.70;;;16.80;66.60;;;;;;5037296;28;20132;-23
2021/12/12 05:26:20;;;;;;;6.07;5.55;;;16.70;66.60;;;;;;5035922;28;20107;-23
2021/12/12 05:29:01;;;;;;;5.90;5.40;;;16.80;66.50;;;;;;5036899;28;20148;-26
2021/12/12 05:31:26;;;;;;;5.25;4.82;;;16.80;66.50;;;;;;5024051;28;20087;-26
2021/12/12 05:33:52;;;;;;;5.70;5.22;;;16.80;66.70;;;;;;5041917;28;20080;-21
2021/12/12 05:36:18;;;;;;;5.45;5.03;;;16.80;66.50;;;;;;5050246;28;20042;-20
2021/12/12 05:38:44;;;;;;;5.45;4.95;;;16.80;66.50;;;;;;5037621;28;20049;-23
2021/12/12 05:41:10;;;;;;;5.15;4.38;;;16.80;66.50;;;;;;5052422;28;20045;-22
2021/12/12 05:43:36;;;;;;;5.35;4.85;;;16.80;66.50;;;;;;5052841;28;20494;-21
2021/12/12 05:46:01;;;;;;;5.47;5.03;;;16.80;66.50;;;;;;5036931;28;20107;-23
2021/12/12 05:48:27;;;;;;;5.28;4.82;;;16.70;66.60;;;;;;5044979;28;20084;-28
2021/12/12 05:50:53;;;;;;;4.82;4.43;;;16.70;66.60;;;;;;5037563;28;20045;-23
2021/12/12 05:53:18;;;;;;;4.50;4.13;;;16.80;66.60;;;;;;5074520;28;20040;-21
2021/12/12 05:55:46;;;;;;;5.57;4.97;;;16.70;66.50;;;;;;5077320;28;20121;-21
2021/12/12 05:58:14;;;;;;;5.18;4.72;;;16.70;66.70;;;;;;5063657;28;20045;-27
2021/12/12 06:00:50;;;;;;;4.68;4.28;;;16.70;66.60;;;;;;5057134;28;20105;-30
2021/12/12 06:03:17;;;;;;;4.65;4.30;;;16.70;66.60;;;;;;5056319;28;20056;-26
2021/12/12 06:05:42;;;;;;;4.78;4.38;;;16.70;66.60;;;;;;5057154;28;20490;-21
2021/12/12 06:08:08;;;;;;;4.60;4.30;;;16.70;66.50;;;;;;5072416;28;20033;-24
2021/12/12 06:10:38;;;;;;;4.22;3.92;;;16.70;66.50;;;;;;5071915;28;20049;-24
2021/12/12 06:13:04;;;;;;;4.82;4.43;;;16.70;66.50;;;;;;5071848;28;20037;-23
2021/12/12 06:15:30;;;;;;;4.30;3.90;;;16.70;66.50;;;;;;5054889;28;20040;-21
2021/12/12 06:17:56;;;;;;;4.15;3.75;;;16.70;66.40;;;;;;5047992;28;20041;-22
2021/12/12 06:20:21;;;;;;;4.25;3.95;;;16.70;66.50;;;;;;5037950;28;20092;-25
2021/12/12 06:22:47;;;;;;;4.15;3.85;;;16.70;66.50;;;;;;5035525;28;20379;-23
2021/12/12 06:25:13;;;;;;;3.92;3.53;;;16.70;66.40;;;;;;5036234;28;20096;-20
2021/12/12 06:27:39;;;;;;;4.10;3.80;;;16.70;66.40;;;;;;5036748;28;20482;-27
2021/12/12 06:30:08;;;;;;;4.82;3.72;;;16.70;66.40;;;;;;5036758;28;20048;-31
2021/12/12 06:32:33;;;;;;;3.55;3.25;;;16.70;66.40;;;;;;5035426;28;20135;-25
2021/12/12 06:34:59;;;;;;;3.88;3.58;;;16.80;66.30;;;;;;5036025;28;20041;-22
2021/12/12 06:37:25;;;;;;;3.83;3.53;;;16.70;66.20;;;;;;5035848;28;20536;-25
2021/12/12 06:39:50;;;;;;;3.72;3.50;;;16.70;66.30;;;;;;5037000;28;20052;-25
2021/12/12 06:42:16;;;;;;;4.07;3.78;;;16.70;66.40;;;;;;5051141;28;20045;-23
2021/12/12 06:44:42;;;;;;;3.60;3.30;;;16.70;66.40;;;;;;5050216;28;20136;-22
2021/12/12 06:47:08;;;;;;;3.35;3.10;;;16.70;66.30;;;;;;5022876;28;20481;-21
2021/12/12 06:49:34;;;;;;;3.40;3.20;;;16.80;66.30;;;;;;5007402;28;20065;-26
2021/12/12 06:52:00;;;;;;;3.50;3.22;;;16.70;66.30;;;;;;5024973;28;20038;-22
2021/12/12 06:54:27;;;;;;;3.35;3.15;;;16.80;66.30;;;;;;5050953;28;20056;-21
2021/12/12 06:56:54;;;;;;;3.53;3.22;;;16.70;66.30;;;;;;5024680;28;20045;-24
2021/12/12 06:59:24;;;;;;;3.25;3.05;;;16.70;66.20;;;;;;5030965;28;20052;-26
2021/12/12 07:01:50;;;;;;;3.00;2.80;;;16.70;66.40;;;;;;5048791;28;20125;-22
2021/12/12 07:04:18;;;;;;;2.85;2.65;;;16.70;66.30;;;;;;5044509;28;20045;-22
2021/12/12 07:06:45;;;;;;;3.22;3.03;;;16.70;66.30;;;;;;5046211;28;20439;-27
2021/12/12 07:09:11;;;;;;;2.92;2.72;;;16.70;66.40;;;;;;5043248;28;20049;-25
2021/12/12 07:11:37;;;;;;;2.88;2.67;;;16.70;66.40;;;;;;5042632;28;20069;-23
2021/12/12 07:14:04;;;;;;;3.15;2.92;;;16.70;66.30;;;;;;5046257;28;20033;-24
2021/12/12 07:16:31;;;;;;;2.90;2.70;;;16.70;66.30;;;;;;5042596;28;20455;-24
2021/12/12 07:18:56;;;;;;;2.70;2.50;;;16.70;66.30;;;;;;5025979;28;20044;-25
2021/12/12 07:21:22;;;;;;;3.15;2.85;;;16.70;66.30;;;;;;5031665;28;20041;-24
2021/12/12 07:23:49;;;;;;;2.88;2.67;;;16.70;66.30;;;;;;5054686;28;20049;-21
2021/12/12 07:26:16;;;;;;;3.42;2.60;;;16.70;66.40;;;;;;5052736;28;20052;-21
2021/12/12 07:28:42;;;;;;;2.03;1.92;;;16.70;66.50;;;;;;5051327;28;20486;-26
2021/12/12 07:31:13;;;;;;;2.45;2.25;;;16.70;66.30;;;;;;5050405;28;20037;-24
2021/12/12 07:33:40;;;;;;;2.60;2.45;;;16.70;66.30;;;;;;5050565;28;20055;-21
2021/12/12 07:36:07;;;;;;;2.22;2.10;;;16.70;66.30;;;;;;5022719;28;20035;-22
2021/12/12 07:38:33;;;;;;;2.67;2.47;;;16.70;66.30;;;;;;5041181;28;20051;-29
2021/12/12 07:40:59;;;;;;;2.40;2.30;;;16.70;66.40;;;;;;5032885;28;20129;-21
2021/12/12 07:43:26;;;;;;;2.42;2.22;;;16.70;66.40;;;;;;5045329;28;20052;-22
2021/12/12 07:45:52;;;;;;;2.30;2.17;;;16.70;66.30;;;;;;5046076;28;20036;-27
2021/12/12 07:48:18;;;;;;;2.42;2.22;;;16.70;66.40;;;;;;5051508;28;20064;-22
2021/12/12 07:50:44;;;;;;;2.47;2.33;;;16.70;66.50;;;;;;5028986;28;20042;-21
2021/12/12 07:53:09;;;;;;;2.53;2.42;;;16.70;66.40;;;;;;5025268;28;20098;-24
2021/12/12 07:55:35;;;;;;;2.30;2.20;;;16.70;66.50;;;;;;5015260;28;20179;-24
2021/12/12 07:58:05;;;;;;;2.47;2.28;;;16.70;66.40;;;;;;5042156;28;20049;-24
2021/12/12 08:00:31;;;;;;;2.40;2.25;;;16.70;66.30;;;;;;5046151;28;20040;-23
2021/12/12 08:02:56;;;;;;;2.63;2.42;;;16.70;66.30;;;;;;5017353;28;20048;-27
2021/12/12 08:05:28;;;;;;;2.40;2.20;;;16.70;66.30;;;;;;5030622;28;20121;-23
2021/12/12 08:08:02;;;;;;;2.00;1.90;;;16.70;66.30;;;;;;5041592;28;20105;-21
2021/12/12 08:10:28;;;;;;;2.05;1.95;;;16.70;66.30;;;;;;5033846;28;20037;-23
2021/12/12 08:12:53;;;;;;;2.00;1.90;;;16.70;66.20;;;;;;5007371;28;20065;-21
2021/12/12 08:15:19;;;;;;;2.13;2.03;;;16.70;66.10;;;;;;5027680;28;20040;-23
2021/12/12 08:17:45;;;;;;;2.35;1.90;;;16.70;66.10;;;;;;5027686;28;20057;-24
2021/12/12 08:20:13;;;;;;;2.05;1.92;;;16.70;66.20;;;;;;5025481;28;20046;-21
2021/12/12 08:22:38;;;;;;;2.28;1.80;;;16.70;66.20;;;;;;5036070;28;20057;-23
2021/12/12 08:25:06;;;;;;;2.05;1.95;;;16.70;66.10;;;;;;5031197;28;20033;-22
2021/12/12 08:27:31;;;;;;;2.17;2.08;;;16.70;66.10;;;;;;5027864;28;20029;-28
2021/12/12 08:29:57;;;;;;;1.90;1.80;;;16.80;66.20;;;;;;5053519;28;20048;-26
2021/12/12 08:32:23;;;;;;;1.65;1.55;;;16.70;66.20;;;;;;5047152;28;20029;-21
2021/12/12 08:34:49;;;;;;;1.85;1.75;;;16.70;66.20;;;;;;5033548;28;20045;-20
2021/12/12 08:37:14;;;;;;;1.98;1.88;;;16.80;66.20;;;;;;5034886;28;20053;-21
2021/12/12 08:39:40;;;;;;;1.60;1.50;;;16.70;66.20;;;;;;5032575;28;20061;-21
2021/12/12 08:42:06;;;;;;;1.85;1.75;;;16.80;66.20;;;;;;5033604;28;20048;-22
2021/12/12 08:44:32;;;;;;;1.98;1.63;;;16.70;66.10;;;;;;5053218;28;20459;-21
2021/12/12 08:46:59;;;;;;;1.52;1.42;;;16.80;66.20;;;;;;5050034;28;20201;-28
2021/12/12 08:49:26;;;;;;;1.65;1.55;;;16.80;66.10;;;;;;5048387;28;20069;-24
2021/12/12 08:51:57;;;;;;;1.60;1.50;;;16.80;66.10;;;;;;5045661;28;20049;-21
2021/12/12 08:54:26;;;;;;;2.35;2.20;;;16.80;66.10;;;;;;5046453;28;20053;-25
2021/12/12 08:57:20;;;;;;;1.70;1.60;;;16.70;66.10;;;;;;5048430;28;20509;-22
2021/12/12 08:59:46;;;;;;;2.03;1.92;;;16.80;66.30;;;;;;5046483;28;20060;-22
2021/12/12 09:02:15;;;;;;;1.77;1.67;;;16.70;66.20;;;;;;5035859;28;20049;-24
2021/12/12 09:04:52;;;;;;;1.80;1.70;;;16.70;66.20;;;;;;5033898;28;20056;-22
2021/12/12 09:07:24;;;;;;;1.55;1.45;;;16.80;66.20;;;;;;5029901;28;20045;-23
2021/12/12 09:10:14;;;;;;;1.80;1.50;;;16.70;66.30;;;;;;5022991;28;20055;-25
2021/12/12 09:13:06;;;;;;;1.50;1.40;;;16.70;66.30;;;;;;5026192;28;20049;-24
2021/12/12 09:15:37;;;;;;;1.55;1.40;;;16.70;66.30;;;;;;5022097;28;20042;-25
2021/12/12 09:18:09;;;;;;;2.28;1.70;;;16.80;66.30;;;;;;5040653;28;20061;-24
2021/12/12 09:20:48;;;;;;;1.48;1.38;;;16.70;66.20;;;;;;5025088;28;20046;-23
2021/12/12 09:23:18;;;;;;;1.40;1.30;;;16.80;66.30;;;;;;5038609;28;20064;-24
2021/12/12 09:25:51;;;;;;;1.55;1.45;;;16.80;66.20;;;;;;5023687;28;20526;-20
2021/12/12 09:28:37;;;;;;;1.38;1.27;;;16.70;66.20;;;;;;5041539;28;20437;-25
2021/12/12 09:31:06;;;;;;;1.30;1.20;;;16.80;66.30;;;;;;5028461;28;20045;-24
2021/12/12 09:33:52;;;;;;;1.52;1.42;;;16.80;66.30;;;;;;5030012;28;20033;-24
2021/12/12 09:36:30;;;;;;;1.52;1.42;;;16.80;66.40;;;;;;5037609;28;20042;-23
2021/12/12 09:39:02;;;;;;;1.75;1.60;;;16.80;66.40;;;;;;5027818;28;20069;-26
2021/12/12 09:41:50;;;;;;;2.03;1.40;;;16.80;66.30;;;;;;5023491;28;20029;-24
2021/12/12 09:44:25;;;;;;;1.20;1.10;;;16.80;66.20;;;;;;5025297;28;20493;-26
2021/12/12 09:47:12;;;;;;;1.27;1.17;;;16.80;66.30;;;;;;5027480;28;20509;-23
2021/12/12 09:53:20;;;;;;;1.23;1.13;;;16.70;66.30;;;;;;5041769;28;20103;-21
2021/12/12 09:55:58;;;;;;;1.38;1.30;;;16.80;66.40;;;;;;5025456;28;20049;-26
2021/12/12 09:58:34;;;;;;;1.17;1.08;;;16.70;66.30;;;;;;5024590;28;20759;-23
2021/12/12 10:01:12;;;;;;;1.35;1.20;;;16.80;66.40;;;;;;5024567;28;20095;-25
2021/12/12 10:03:44;;;;;;;1.15;0.90;;;16.80;66.50;;;;;;5043167;28;20159;-20
2021/12/12 10:06:30;;;;;;;1.38;1.27;;;16.80;66.50;;;;;;5027359;28;20036;-24
2021/12/12 10:09:04;;;;;;;1.30;1.20;;;16.80;66.50;;;;;;5031884;28;20057;-23
2021/12/12 10:12:20;;;;;;;1.30;1.20;;;16.80;66.60;;;;;;5041601;28;20072;-25
2021/12/12 10:14:49;;;;;;;1.63;1.00;;;16.80;66.50;;;;;;5030042;28;20051;-25
2021/12/12 10:17:53;;;;;;;1.52;0.95;;;16.80;66.50;;;;;;5039446;28;20498;-21
2021/12/12 10:20:30;;;;;;;1.27;1.17;;;16.70;66.60;;;;;;5033380;28;20089;-22
2021/12/12 10:23:13;;;;;;;1.27;0.98;;;16.80;66.60;;;;;;5033782;28;20380;-23
2021/12/12 10:26:07;;;;;;;1.25;1.15;;;16.80;66.60;;;;;;5025584;28;20049;-23
2021/12/12 10:28:52;;;;;;;1.10;1.03;;;16.80;66.60;;;;;;5036089;28;20091;-21
2021/12/12 10:32:00;;;;;;;1.25;1.20;;;16.80;66.40;;;;;;5026619;28;20284;-21
2021/12/12 10:34:28;;;;;;;0.93;0.93;;;16.80;66.40;;;;;;4987766;28;20105;-21
2021/12/12 10:37:15;;;;;;;1.65;1.55;;;16.90;66.80;;;;;;5029245;28;20586;-20
2021/12/12 10:39:47;;;;;;;1.17;1.05;;;16.80;66.60;;;;;;5037726;28;20517;-24
2021/12/12 10:42:19;;;;;;;3.13;1.20;;;16.80;66.90;;;;;;5025192;28;20044;-24
2021/12/12 10:45:02;;;;;;;1.30;1.20;;;16.90;67.40;;;;;;5042012;28;20096;-26
2021/12/12 10:47:38;;;;;;;1.27;1.17;;;16.90;67.40;;;;;;5043977;28;20051;-29
2021/12/12 10:50:18;;;;;;;2.17;1.50;;;16.90;67.40;;;;;;5038742;28;20054;-23
2021/12/12 10:52:53;;;;;;;1.45;1.30;;;16.90;67.50;;;;;;5041622;28;20041;-21
2021/12/12 10:55:24;;;;;;;1.52;1.35;;;16.90;67.80;;;;;;5040188;28;20055;-22
2021/12/12 10:57:57;;;;;;;5.45;1.70;;;16.90;67.60;;;;;;5028586;28;20437;-22
2021/12/12 11:00:29;;;;;;;2.08;1.55;;;16.90;67.70;;;;;;5033681;28;20087;-24
2021/12/12 11:03:06;;;;;;;1.30;1.20;;;16.90;67.60;;;;;;5023776;28;20595;-23
2021/12/12 11:05:42;;;;;;;2.33;1.35;;;16.90;67.60;;;;;;5033731;28;20047;-21
2021/12/12 11:08:14;;;;;;;1.42;1.33;;;17.00;67.70;;;;;;5018907;28;20053;-24
2021/12/12 11:10:41;;;;;;;1.23;1.17;;;17.00;67.70;;;;;;5032062;28;20517;-21
2021/12/12 11:13:28;;;;;;;1.20;1.10;;;17.00;67.50;;;;;;5034323;28;20043;-24
2021/12/12 11:16:15;;;;;;;1.38;1.27;;;17.00;67.40;;;;;;5032138;28;20054;-21
2021/12/12 11:18:49;;;;;;;2.83;1.30;;;17.00;67.40;;;;;;5032333;28;20045;-26
2021/12/12 11:21:29;;;;;;;1.27;1.17;;;17.00;67.30;;;;;;4679024;28;9999743;-26
2021/12/12 11:23:58;;;;;;;2.25;1.23;;;17.00;67.40;;;;;;5027124;28;20049;-29
2021/12/12 11:26:40;;;;;;;2.85;1.20;;;17.00;67.20;;;;;;5030605;28;20051;-26
2021/12/12 11:29:15;;;;;;;1.20;1.13;;;17.10;67.30;;;;;;5025385;28;20048;-22
2021/12/12 11:31:54;;;;;;;1.20;1.10;;;17.10;67.20;;;;;;5028332;28;20081;-26
2021/12/12 11:34:23;;;;;;;1.55;1.42;;;17.10;67.30;;;;;;5026193;28;20053;-26
2021/12/12 11:37:11;;;;;;;1.23;1.02;;;17.10;67.00;;;;;;5044569;28;20272;-32
2021/12/12 11:39:54;;;;;;;0.80;0.80;;;17.10;67.20;;;;;;5045269;28;20389;-22
2021/12/12 11:42:26;;;;;;;0.90;0.90;;;17.10;67.20;;;;;;5042844;28;20514;-26
2021/12/12 11:45:07;;;;;;;0.90;0.90;;;17.10;67.30;;;;;;5021353;28;20136;-22
2021/12/12 11:48:13;;;;;;;1.23;1.00;;;17.20;67.00;;;;;;5024358;28;20529;-25
2021/12/12 11:50:46;;;;;;;1.00;1.00;;;17.20;67.00;;;;;;4980552;28;20543;-31
2021/12/12 11:53:36;;;;;;;1.80;1.10;;;17.20;66.90;;;;;;5032398;28;20046;-24
2021/12/12 11:56:14;;;;;;;0.88;0.88;;;17.20;66.70;;;;;;5024634;28;20045;-25
2021/12/12 11:59:04;;;;;;;1.48;1.20;;;17.20;66.80;;;;;;5019922;28;20058;-26
2021/12/12 12:01:39;;;;;;;2.63;1.20;;;17.20;66.70;;;;;;5020812;28;20029;-26
2021/12/12 12:04:17;;;;;;;2.90;1.17;;;17.30;67.10;;;;;;5026387;28;20052;-26
2021/12/12 12:07:09;;;;;;;2.10;1.35;;;17.30;67.70;;;;;;5023745;28;20095;-21
2021/12/12 12:10:02;;;;;;;1.55;1.20;;;17.30;67.00;;;;;;5024153;28;20120;-27
2021/12/12 12:12:37;;;;;;;3.65;1.00;;;17.30;67.20;;;;;;5028311;28;20635;-25
2021/12/12 12:15:12;;;;;;;2.35;1.20;;;17.30;67.80;;;;;;5026453;28;20621;-29
2021/12/12 12:17:57;;;;;;;1.40;1.20;;;17.40;67.30;;;;;;5022864;28;20134;-26
2021/12/12 12:20:28;;;;;;;1.40;1.30;;;17.40;68.60;;;;;;5043334;28;20094;-23
2021/12/12 12:23:41;;;;;;;1.23;1.13;;;17.40;67.90;;;;;;5027310;28;20049;-30
2021/12/12 12:29:08;;;;;;;1.70;1.17;;;17.40;67.50;;;;;;5029373;28;20414;-22
2021/12/12 12:31:37;;;;;;;1.75;1.20;;;17.40;67.60;;;;;;5029478;28;20041;-30
2021/12/12 12:34:49;;;;;;;1.67;1.00;;;17.40;68.60;;;;;;5040967;28;20556;-31
2021/12/12 12:37:49;;;;;;;1.10;1.00;;;17.40;67.60;;;;;;5031364;28;20407;-27
2021/12/12 12:40:52;;;;;;;0.88;0.80;;;17.50;67.60;;;;;;5021147;28;20136;-26
2021/12/12 12:43:54;;;;;;;0.70;0.70;;;17.50;67.60;;;;;;5032181;28;20132;-22
2021/12/12 12:46:58;;;;;;;2.22;0.90;;;17.50;67.60;;;;;;5048092;28;20076;-28
2021/12/12 12:49:54;;;;;;;1.27;0.75;;;17.50;67.50;;;;;;5033035;28;20500;-26
2021/12/12 12:52:56;;;;;;;1.10;1.00;;;17.50;67.50;;;;;;5030518;28;20045;-21
2021/12/12 12:56:00;;;;;;;1.20;1.00;;;17.60;67.20;;;;;;5024959;28;20072;-24
2021/12/12 12:58:25;;;;;;;1.35;1.25;;;17.60;67.40;;;;;;5030643;28;20045;-24
2021/12/12 13:01:08;;;;;;;1.42;1.10;;;17.70;67.70;;;;;;5033379;28;20033;-28
2021/12/12 13:03:59;;;;;;;2.22;1.60;;;17.70;67.80;;;;;;5043208;28;20508;-30
2021/12/12 13:06:53;;;;;;;1.42;1.33;;;17.70;67.60;;;;;;5024908;28;20113;-25
2021/12/12 13:09:52;;;;;;;2.03;1.05;;;17.70;67.50;;;;;;5031891;28;20045;-24
2021/12/12 13:12:37;;;;;;;1.30;1.20;;;17.80;67.50;;;;;;4990666;28;20514;-30
2021/12/12 13:15:13;;;;;;;2.88;1.38;;;17.80;67.30;;;;;;5045176;28;20557;-25
2021/12/12 13:18:16;;;;;;;1.05;0.95;;;17.80;67.30;;;;;;5032746;28;20517;-26
2021/12/12 13:21:10;;;;;;;1.55;1.13;;;17.80;67.60;;;;;;5015433;28;20059;-25
2021/12/12 13:23:57;;;;;;;1.70;1.05;;;17.80;67.50;;;;;;5045018;28;20036;-24
2021/12/12 13:26:44;;;;;;;1.48;1.25;;;17.80;67.50;;;;;;5050756;28;20124;-26
2021/12/12 13:29:31;;;;;;;2.15;1.48;;;17.80;67.50;;;;;;5022378;28;20094;-28
2021/12/12 13:32:02;;;;;;;1.02;0.90;;;17.80;67.40;;;;;;5027226;28;20038;-25
2021/12/12 13:34:35;;;;;;;3.08;0.98;;;17.80;67.50;;;;;;5045649;28;20045;-25